createdAt,value
2018-07-03T00:00:11.629Z,1.17
2018-07-03T00:02:39.926Z,1.10
2018-07-03T00:05:08.378Z,1.10
2018-07-03T00:07:36.976Z,0.90
2018-07-03T00:10:05.419Z,0.87
2018-07-03T00:12:33.801Z,1.00
2018-07-03T00:15:02.174Z,1.00
2018-07-03T00:17:30.504Z,1.00
2018-07-03T00:19:58.849Z,1.00
2018-07-03T00:22:27.136Z,0.93
2018-07-03T00:24:55.553Z,1.10
2018-07-03T00:27:23.876Z,0.90
2018-07-03T00:29:52.192Z,0.90
2018-07-03T00:32:20.500Z,1.00
2018-07-03T00:34:48.824Z,1.03
2018-07-03T00:37:17.172Z,1.00
2018-07-03T00:39:45.208Z,1.10
2018-07-03T00:42:13.529Z,1.03
2018-07-03T00:44:41.929Z,0.87
2018-07-03T00:47:10.320Z,1.00
2018-07-03T00:49:38.697Z,1.10
2018-07-03T00:52:07.101Z,0.97
2018-07-03T00:54:35.447Z,1.00
2018-07-03T00:57:03.749Z,1.17
2018-07-03T00:59:32.089Z,1.00
2018-07-03T01:02:00.384Z,1.00
2018-07-03T01:04:28.736Z,0.90
2018-07-03T01:06:57.048Z,0.90
2018-07-03T01:09:25.400Z,1.00
2018-07-03T01:11:53.765Z,1.20
2018-07-03T01:14:22.113Z,1.10
2018-07-03T01:16:50.432Z,1.20
2018-07-03T01:19:18.932Z,1.10
2018-07-03T01:21:47.278Z,1.40
2018-07-03T01:24:15.607Z,1.37
2018-07-03T01:26:43.906Z,1.20
2018-07-03T01:29:12.224Z,1.30
2018-07-03T01:31:40.566Z,1.60
2018-07-03T01:34:08.873Z,1.60
2018-07-03T01:36:37.281Z,1.50
2018-07-03T01:39:06.536Z,1.40
2018-07-03T01:41:34.864Z,1.30
2018-07-03T01:44:03.162Z,1.40
2018-07-03T01:46:31.512Z,1.40
2018-07-03T01:48:59.841Z,1.47
2018-07-03T01:51:28.196Z,1.50
2018-07-03T01:53:56.540Z,1.40
2018-07-03T01:56:24.988Z,1.70
2018-07-03T01:58:53.365Z,1.50
2018-07-03T02:01:21.735Z,1.50
2018-07-03T02:03:50.021Z,1.30
2018-07-03T02:06:18.352Z,1.47
2018-07-03T02:08:46.656Z,1.30
2018-07-03T02:11:14.993Z,1.30
2018-07-03T02:13:43.290Z,1.30
2018-07-03T02:16:11.646Z,1.50
2018-07-03T02:18:39.972Z,1.40
2018-07-03T02:21:08.306Z,1.70
2018-07-03T02:23:36.629Z,1.50
2018-07-03T02:26:04.961Z,1.70
2018-07-03T02:28:33.279Z,1.70
2018-07-03T02:31:01.593Z,1.73
2018-07-03T02:33:29.885Z,1.43
2018-07-03T02:35:58.209Z,1.60
2018-07-03T02:38:26.513Z,1.60
2018-07-03T02:40:54.867Z,1.50
2018-07-03T02:43:23.192Z,1.70
2018-07-03T02:45:51.509Z,1.70
2018-07-03T02:48:19.811Z,1.23
2018-07-03T02:50:48.129Z,1.83
2018-07-03T02:53:16.431Z,1.40
2018-07-03T02:55:44.740Z,1.40
2018-07-03T02:58:13.057Z,1.30
2018-07-03T03:00:41.374Z,1.60
2018-07-03T03:03:09.677Z,1.30
2018-07-03T03:05:38.017Z,1.50
2018-07-03T03:08:06.384Z,1.47
2018-07-03T03:10:34.683Z,1.60
2018-07-03T03:13:03.008Z,1.50
2018-07-03T03:15:31.348Z,1.50
2018-07-03T03:17:59.699Z,1.50
2018-07-03T03:20:28.052Z,1.40
2018-07-03T03:22:56.353Z,1.60
2018-07-03T03:25:24.683Z,1.70
2018-07-03T03:27:52.989Z,1.53
2018-07-03T03:30:21.333Z,1.50
2018-07-03T03:32:49.633Z,1.63
2018-07-03T03:35:17.984Z,1.70
2018-07-03T03:37:46.389Z,1.80
2018-07-03T03:40:14.804Z,1.40
2018-07-03T03:42:43.374Z,1.63
2018-07-03T03:45:12.280Z,1.67
2018-07-03T03:47:40.840Z,1.70
2018-07-03T03:50:09.141Z,1.60
2018-07-03T03:52:37.524Z,1.80
2018-07-03T03:55:05.934Z,1.73
2018-07-03T03:57:34.253Z,1.70
2018-07-03T04:00:02.324Z,1.90
2018-07-03T04:02:30.745Z,1.40
2018-07-03T04:04:59.049Z,1.77
2018-07-03T04:07:27.375Z,1.50
2018-07-03T04:09:55.677Z,1.60
2018-07-03T04:12:24.084Z,1.60
2018-07-03T04:14:52.436Z,1.60
2018-07-03T04:17:20.775Z,1.60
2018-07-03T04:19:49.108Z,1.67
2018-07-03T04:22:17.853Z,1.70
2018-07-03T04:24:46.195Z,1.80
2018-07-03T04:27:14.529Z,1.53
2018-07-03T04:29:42.828Z,1.57
2018-07-03T04:32:11.153Z,1.20
2018-07-03T04:34:39.477Z,1.20
2018-07-03T04:37:07.798Z,1.43
2018-07-03T04:39:35.821Z,1.40
2018-07-03T04:42:04.153Z,1.50
2018-07-03T04:44:32.452Z,1.43
2018-07-03T04:47:00.869Z,1.67
2018-07-03T04:49:29.137Z,1.47
2018-07-03T04:51:57.479Z,1.63
2018-07-03T04:54:25.892Z,1.60
2018-07-03T04:56:54.233Z,1.60
2018-07-03T04:59:22.516Z,1.60
2018-07-03T05:01:50.914Z,1.40
2018-07-03T05:04:19.211Z,1.40
2018-07-03T05:06:47.546Z,1.50
2018-07-03T05:09:15.850Z,1.50
2018-07-03T05:11:44.168Z,1.40
2018-07-03T05:14:12.469Z,1.10
2018-07-03T05:16:40.785Z,1.30
2018-07-03T05:19:09.096Z,1.30
2018-07-03T05:21:37.452Z,1.10
2018-07-03T05:24:05.950Z,1.10
2018-07-03T05:26:34.289Z,1.00
2018-07-03T05:29:02.601Z,0.90
2018-07-03T05:31:30.931Z,0.80
2018-07-03T05:33:59.221Z,1.00
2018-07-03T05:36:27.532Z,0.80
2018-07-03T05:38:55.850Z,1.40
2018-07-03T05:41:24.176Z,1.40
2018-07-03T05:43:52.503Z,1.57
2018-07-03T05:46:20.817Z,1.40
2018-07-03T05:48:49.265Z,1.27
2018-07-03T05:51:17.545Z,1.30
2018-07-03T05:53:47.649Z,1.30
2018-07-03T05:56:16.032Z,1.03
2018-07-03T05:58:44.293Z,1.20
2018-07-03T06:01:12.604Z,0.90
2018-07-03T06:03:41.024Z,0.90
2018-07-03T06:06:09.357Z,0.90
2018-07-03T06:08:37.693Z,1.00
2018-07-03T06:11:06.009Z,0.97
2018-07-03T06:13:34.357Z,0.90
2018-07-03T06:16:02.681Z,0.90
2018-07-03T06:18:31.033Z,0.70
2018-07-03T06:20:59.321Z,0.70
2018-07-03T06:23:27.636Z,0.70
2018-07-03T06:25:55.929Z,0.60
2018-07-03T06:28:24.244Z,0.70
2018-07-03T06:30:52.558Z,0.70
2018-07-03T06:33:20.896Z,0.90
2018-07-03T06:35:49.220Z,0.50
2018-07-03T06:38:17.748Z,0.50
2018-07-03T06:40:45.857Z,0.70
2018-07-03T06:43:14.173Z,0.70
2018-07-03T06:45:42.473Z,0.60
2018-07-03T06:48:10.797Z,0.63
2018-07-03T06:50:39.093Z,0.60
2018-07-03T06:53:07.456Z,0.50
2018-07-03T06:55:35.748Z,0.60
2018-07-03T06:58:04.166Z,0.60
2018-07-03T07:00:32.473Z,0.50
2018-07-03T07:03:00.827Z,0.60
2018-07-03T07:05:29.168Z,0.50
2018-07-03T07:07:57.477Z,0.60
2018-07-03T07:10:25.789Z,0.63
2018-07-03T07:12:54.089Z,0.60
2018-07-03T07:15:22.136Z,0.60
2018-07-03T07:17:50.454Z,0.53
2018-07-03T07:20:18.766Z,0.57
2018-07-03T07:22:47.053Z,0.50
2018-07-03T07:25:15.365Z,0.50
2018-07-03T07:27:43.685Z,0.60
2018-07-03T07:30:12.013Z,0.50
2018-07-03T07:32:40.304Z,0.70
2018-07-03T07:35:08.626Z,0.50
2018-07-03T07:37:36.954Z,0.60
2018-07-03T07:40:05.408Z,0.70
2018-07-03T07:42:33.727Z,0.50
2018-07-03T07:45:02.046Z,0.57
2018-07-03T07:47:30.349Z,0.60
2018-07-03T07:49:58.661Z,0.40
2018-07-03T07:52:26.961Z,0.60
2018-07-03T07:54:55.336Z,0.70
2018-07-03T07:57:23.647Z,0.60
2018-07-03T07:59:55.297Z,0.60
2018-07-03T08:02:23.630Z,0.40
2018-07-03T08:04:51.954Z,0.60
2018-07-03T08:07:20.264Z,0.43
2018-07-03T08:09:48.584Z,0.50
2018-07-03T08:12:16.881Z,0.60
2018-07-03T08:14:45.205Z,15.23
2018-07-03T08:17:13.537Z,13.77
2018-07-03T08:19:41.893Z,5.53
2018-07-03T08:22:10.193Z,2.20
2018-07-03T08:24:38.548Z,2.50
2018-07-03T08:27:06.885Z,5.70
2018-07-03T08:29:35.408Z,0.80
2018-07-03T08:32:03.761Z,0.67
2018-07-03T08:34:32.082Z,0.90
2018-07-03T08:37:00.392Z,0.50
2018-07-03T08:39:28.733Z,0.50
2018-07-03T08:41:57.037Z,0.70
2018-07-03T08:44:25.416Z,0.60
2018-07-03T08:46:53.754Z,0.93
2018-07-03T08:49:22.197Z,0.70
2018-07-03T08:51:50.595Z,0.60
2018-07-03T08:54:18.862Z,0.47
2018-07-03T08:56:47.192Z,0.60
2018-07-03T08:59:15.497Z,0.60
2018-07-03T09:01:43.818Z,0.40
2018-07-03T09:04:12.149Z,0.50
2018-07-03T09:06:40.465Z,0.50
2018-07-03T09:09:10.061Z,0.60
2018-07-03T09:11:38.435Z,0.50
2018-07-03T09:14:07.230Z,0.50
2018-07-03T09:16:35.555Z,0.60
2018-07-03T09:19:03.908Z,0.50
2018-07-03T09:21:32.265Z,0.60
2018-07-03T09:24:00.624Z,0.50
2018-07-03T09:26:28.968Z,0.50
2018-07-03T09:28:57.280Z,0.40
2018-07-03T09:31:25.657Z,0.40
2018-07-03T09:33:54.184Z,0.33
2018-07-03T09:36:22.594Z,0.60
2018-07-03T09:38:50.861Z,0.60
2018-07-03T09:41:19.176Z,0.50
2018-07-03T09:43:47.511Z,0.50
2018-07-03T09:46:15.820Z,0.70
2018-07-03T09:48:44.126Z,1.00
2018-07-03T09:51:12.457Z,0.50
2018-07-03T09:53:40.784Z,0.60
2018-07-03T09:56:09.104Z,0.60
2018-07-03T09:58:37.396Z,0.70
2018-07-03T10:01:11.184Z,0.60
2018-07-03T10:03:39.580Z,0.60
2018-07-03T10:06:07.921Z,0.50
2018-07-03T10:08:36.241Z,0.60
2018-07-03T10:11:04.577Z,0.50
2018-07-03T10:13:32.904Z,0.60
2018-07-03T10:16:01.238Z,0.50
2018-07-03T10:18:29.557Z,0.60
2018-07-03T10:20:57.890Z,0.40
2018-07-03T10:23:26.205Z,0.50
2018-07-03T10:25:54.526Z,0.60
2018-07-03T10:28:22.852Z,0.60
2018-07-03T10:30:51.189Z,0.53
2018-07-03T10:33:19.505Z,0.70
2018-07-03T10:35:47.814Z,0.60
2018-07-03T10:38:16.169Z,0.50
2018-07-03T10:40:44.497Z,0.40
2018-07-03T10:43:12.846Z,0.63
2018-07-03T10:45:41.536Z,0.50
2018-07-03T10:48:09.882Z,0.60
2018-07-03T10:50:38.399Z,0.70
2018-07-03T10:53:06.746Z,0.47
2018-07-03T10:55:35.269Z,0.50
2018-07-03T10:58:03.637Z,0.80
2018-07-03T11:00:31.953Z,0.70
2018-07-03T11:03:00.400Z,0.50
2018-07-03T11:05:28.755Z,0.55
2018-07-03T11:07:57.145Z,0.53
2018-07-03T11:10:25.490Z,0.60
2018-07-03T11:12:53.849Z,0.70
2018-07-03T11:15:22.157Z,0.60
2018-07-03T11:17:50.573Z,0.70
2018-07-03T11:20:18.964Z,0.70
2018-07-03T11:22:47.284Z,0.60
2018-07-03T11:25:15.585Z,0.78
2018-07-03T11:27:43.938Z,0.80
2018-07-03T11:30:12.269Z,0.72
2018-07-03T11:32:40.617Z,0.62
2018-07-03T11:35:09.221Z,0.70
2018-07-03T11:37:37.586Z,0.70
2018-07-03T11:40:05.957Z,0.53
2018-07-03T11:42:34.272Z,0.70
2018-07-03T11:45:02.605Z,0.70
2018-07-03T11:47:30.929Z,0.70
2018-07-03T11:49:59.237Z,0.50
2018-07-03T11:52:27.585Z,0.70
2018-07-03T11:54:55.882Z,0.68
2018-07-03T11:57:24.229Z,0.62
2018-07-03T11:59:52.532Z,0.65
2018-07-03T12:02:20.873Z,0.50
2018-07-03T12:04:49.208Z,0.60
2018-07-03T12:07:17.628Z,0.60
2018-07-03T12:09:45.940Z,0.50
2018-07-03T12:12:14.246Z,0.75
2018-07-03T12:14:42.565Z,0.80
2018-07-03T12:17:10.901Z,0.70
2018-07-03T12:19:39.299Z,0.60
2018-07-03T12:22:07.308Z,0.60
2018-07-03T12:24:35.614Z,0.60
2018-07-03T12:27:03.981Z,0.70
2018-07-03T12:29:32.366Z,0.70
2018-07-03T12:32:00.685Z,0.70
2018-07-03T12:34:29.040Z,0.60
2018-07-03T12:36:57.346Z,0.57
2018-07-03T12:39:25.656Z,0.70
2018-07-03T12:41:53.972Z,0.70
2018-07-03T12:44:22.310Z,0.60
2018-07-03T12:46:50.609Z,0.50
2018-07-03T12:49:18.924Z,0.65
2018-07-03T12:51:47.232Z,0.70
2018-07-03T12:54:15.579Z,0.62
2018-07-03T12:56:43.891Z,0.60
2018-07-03T12:59:12.200Z,0.60
2018-07-03T13:01:40.492Z,0.70
2018-07-03T13:04:08.896Z,0.60
2018-07-03T13:06:37.221Z,0.60
2018-07-03T13:09:08.508Z,0.70
2018-07-03T13:11:37.032Z,0.60
2018-07-03T13:14:05.600Z,0.60
2018-07-03T13:16:33.932Z,0.62
2018-07-03T13:19:02.261Z,0.60
2018-07-03T13:21:30.588Z,0.60
2018-07-03T13:23:58.901Z,0.73
2018-07-03T13:26:27.217Z,1.00
2018-07-03T13:28:55.557Z,0.70
2018-07-03T13:31:24.010Z,0.70
2018-07-03T13:33:52.321Z,0.70
2018-07-03T13:36:20.670Z,0.80
2018-07-03T13:38:49.033Z,0.60
2018-07-03T13:41:17.348Z,0.80
2018-07-03T13:43:45.677Z,0.60
2018-07-03T13:46:13.980Z,0.80
2018-07-03T13:48:42.290Z,0.80
2018-07-03T13:51:10.713Z,0.80
2018-07-03T13:53:39.060Z,0.73
2018-07-03T13:56:07.385Z,0.60
2018-07-03T13:58:35.840Z,0.70
2018-07-03T14:01:04.200Z,0.77
2018-07-03T14:03:32.604Z,0.70
2018-07-03T14:06:00.946Z,0.70
2018-07-03T14:08:29.269Z,0.70
2018-07-03T14:10:57.604Z,0.90
2018-07-03T14:13:25.927Z,0.87
2018-07-03T14:15:54.275Z,0.60
2018-07-03T14:18:26.668Z,0.60
2018-07-03T14:20:56.868Z,0.70
2018-07-03T14:23:25.685Z,0.60
2018-07-03T14:25:54.168Z,0.60
2018-07-03T14:28:22.513Z,0.70
2018-07-03T14:30:50.939Z,0.70
2018-07-03T14:33:19.418Z,0.67
2018-07-03T14:35:47.856Z,0.80
2018-07-03T14:38:16.157Z,0.80
2018-07-03T14:40:44.488Z,0.80
2018-07-03T14:43:12.809Z,0.70
2018-07-03T14:45:41.153Z,0.70
2018-07-03T14:48:09.779Z,0.70
2018-07-03T14:50:38.140Z,0.90
2018-07-03T14:53:06.509Z,0.90
2018-07-03T14:55:35.020Z,0.70
2018-07-03T14:58:03.377Z,0.73
2018-07-03T15:00:31.710Z,0.80
2018-07-03T15:03:00.015Z,0.70
2018-07-03T15:05:28.357Z,0.70
2018-07-03T15:07:56.652Z,0.77
2018-07-03T15:10:26.031Z,0.70
2018-07-03T15:12:54.585Z,0.90
2018-07-03T15:15:22.909Z,0.80
2018-07-03T15:17:50.970Z,0.80
2018-07-03T15:20:19.288Z,0.80
2018-07-03T15:22:47.618Z,0.80
2018-07-03T15:25:15.692Z,0.90
2018-07-03T15:27:44.110Z,0.73
2018-07-03T15:30:15.931Z,0.70
2018-07-03T15:32:44.233Z,0.70
2018-07-03T15:35:12.551Z,0.70
2018-07-03T15:37:40.876Z,0.80
2018-07-03T15:40:09.200Z,0.70
2018-07-03T15:42:37.495Z,0.60
2018-07-03T15:45:13.673Z,0.80
2018-07-03T15:47:42.020Z,0.90
2018-07-03T15:50:11.320Z,0.80
2018-07-03T15:52:39.784Z,0.80
2018-07-03T15:55:08.702Z,0.60
2018-07-03T15:57:37.029Z,0.80
2018-07-03T16:00:08.173Z,0.80
2018-07-03T16:02:36.472Z,0.90
2018-07-03T16:05:17.389Z,0.80
2018-07-03T16:07:57.116Z,0.83
2018-07-03T16:10:25.996Z,0.80
2018-07-03T16:12:54.410Z,0.80
2018-07-03T16:15:22.757Z,0.80
2018-07-03T16:17:51.107Z,0.83
2018-07-03T16:20:24.783Z,0.80
2018-07-03T16:22:53.137Z,0.70
2018-07-03T16:25:21.520Z,0.83
2018-07-03T16:27:49.857Z,0.70
2018-07-03T16:30:18.214Z,0.80
2018-07-03T16:32:46.517Z,0.70
2018-07-03T16:35:14.840Z,0.90
2018-07-03T16:37:43.170Z,0.80
2018-07-03T16:40:11.501Z,0.77
2018-07-03T16:42:39.825Z,0.90
2018-07-03T16:45:08.145Z,0.90
2018-07-03T16:47:36.189Z,0.70
2018-07-03T16:50:04.553Z,0.80
2018-07-03T16:52:32.886Z,0.80
2018-07-03T16:55:01.190Z,0.70
2018-07-03T16:57:29.518Z,0.60
2018-07-03T16:59:57.842Z,0.70
2018-07-03T17:02:26.188Z,0.70
2018-07-03T17:04:54.493Z,0.80
2018-07-03T17:07:22.799Z,0.60
2018-07-03T17:09:51.090Z,0.60
2018-07-03T17:12:19.440Z,0.60
2018-07-03T17:14:47.765Z,0.73
2018-07-03T17:17:16.077Z,0.70
2018-07-03T17:19:44.425Z,0.70
2018-07-03T17:22:12.742Z,0.60
2018-07-03T17:24:41.056Z,0.60
2018-07-03T17:27:09.389Z,0.60
2018-07-03T17:29:38.056Z,0.70
2018-07-03T17:32:06.373Z,0.70
2018-07-03T17:34:34.679Z,0.63
2018-07-03T17:37:03.029Z,0.80
2018-07-03T17:39:42.561Z,0.70
2018-07-03T17:43:21.889Z,0.70
2018-07-03T17:46:01.811Z,0.70
2018-07-03T17:48:30.117Z,0.67
2018-07-03T17:50:58.448Z,0.90
2018-07-03T17:53:26.756Z,0.70
2018-07-03T17:55:55.485Z,0.73
2018-07-03T17:58:23.796Z,0.57
2018-07-03T18:00:52.124Z,0.70
2018-07-03T18:03:20.465Z,0.50
2018-07-03T18:05:48.807Z,0.70
2018-07-03T18:08:17.146Z,0.80
2018-07-03T18:10:45.513Z,0.67
2018-07-03T18:13:13.856Z,0.80
2018-07-03T18:15:42.241Z,0.80
2018-07-03T18:18:10.581Z,0.80
2018-07-03T18:20:38.897Z,0.83
2018-07-03T18:23:07.485Z,0.80
2018-07-03T18:25:35.857Z,0.70
2018-07-03T18:28:04.196Z,0.83
2018-07-03T18:30:32.524Z,0.90
2018-07-03T18:33:01.043Z,0.80
2018-07-03T18:35:29.318Z,1.17
2018-07-03T18:37:57.656Z,0.90
2018-07-03T18:40:25.945Z,1.00
2018-07-03T18:42:54.268Z,0.80
2018-07-03T18:45:22.574Z,0.80
2018-07-03T18:47:50.896Z,0.80
2018-07-03T18:50:19.223Z,0.87
2018-07-03T18:52:47.567Z,0.80
2018-07-03T18:55:15.904Z,0.97
2018-07-03T18:57:44.242Z,1.00
2018-07-03T19:00:12.563Z,0.90
2018-07-03T19:02:41.090Z,0.70
2018-07-03T19:05:09.404Z,0.80
2018-07-03T19:07:37.754Z,0.90
2018-07-03T19:10:06.078Z,0.90
2018-07-03T19:12:34.403Z,0.90
2018-07-03T19:15:02.714Z,0.97
2018-07-03T19:17:31.037Z,1.10
2018-07-03T19:19:59.362Z,0.97
2018-07-03T19:22:27.698Z,0.97
2018-07-03T19:24:55.985Z,0.90
2018-07-03T19:27:24.297Z,1.30
2018-07-03T19:29:52.599Z,1.30
2018-07-03T19:32:20.906Z,1.47
2018-07-03T19:34:49.262Z,1.47
2018-07-03T19:37:17.572Z,1.30
2018-07-03T19:39:45.987Z,1.20
2018-07-03T19:42:14.235Z,1.50
2018-07-03T19:44:42.537Z,1.57
2018-07-03T19:47:10.840Z,1.50
2018-07-03T19:49:39.132Z,1.67
2018-07-03T19:52:07.477Z,1.87
2018-07-03T19:54:37.917Z,1.50
2018-07-03T19:57:06.265Z,2.10
2018-07-03T19:59:34.569Z,1.70
2018-07-03T20:02:02.918Z,1.43
2018-07-03T20:04:31.248Z,1.37
2018-07-03T20:06:59.535Z,1.47
2018-07-03T20:09:27.866Z,1.40
2018-07-03T20:11:56.365Z,1.50
2018-07-03T20:14:24.706Z,1.33
2018-07-03T20:16:53.041Z,1.33
2018-07-03T20:19:21.481Z,1.40
2018-07-03T20:21:49.776Z,1.40
2018-07-03T20:24:18.109Z,1.10
2018-07-03T20:26:46.420Z,0.90
2018-07-03T20:29:14.884Z,0.80
2018-07-03T20:31:43.290Z,1.10
2018-07-03T20:34:11.687Z,1.00
2018-07-03T20:36:40.017Z,1.03
2018-07-03T20:39:09.561Z,1.27
2018-07-03T20:41:38.134Z,1.47
2018-07-03T20:44:06.496Z,2.50
2018-07-03T20:46:34.798Z,3.53
2018-07-03T20:49:03.303Z,2.30
2018-07-03T20:51:31.597Z,3.17
2018-07-03T20:53:59.909Z,3.37
2018-07-03T20:56:28.220Z,2.90
2018-07-03T20:58:56.533Z,2.20
2018-07-03T21:01:24.909Z,2.20
2018-07-03T21:03:53.233Z,1.60
2018-07-03T21:06:21.592Z,1.20
2018-07-03T21:08:49.850Z,1.30
2018-07-03T21:11:18.153Z,1.10
2018-07-03T21:13:46.479Z,1.13
2018-07-03T21:16:14.797Z,1.20
2018-07-03T21:18:43.175Z,1.00
2018-07-03T21:21:11.468Z,0.97
2018-07-03T21:23:39.810Z,1.07
2018-07-03T21:26:08.111Z,1.10
2018-07-03T21:28:36.425Z,1.60
2018-07-03T21:31:04.758Z,2.07
2018-07-03T21:33:33.259Z,2.07
2018-07-03T21:36:01.654Z,2.17
2018-07-03T21:38:30.103Z,1.63
2018-07-03T21:40:58.544Z,1.93
2018-07-03T21:43:27.057Z,1.53
2018-07-03T21:45:55.385Z,1.90
2018-07-03T21:48:23.774Z,2.10
2018-07-03T21:50:52.093Z,1.90
2018-07-03T21:53:20.423Z,1.30
2018-07-03T21:55:48.741Z,1.10
2018-07-03T21:58:18.090Z,1.30
2018-07-03T22:00:46.472Z,1.80
2018-07-03T22:03:14.888Z,2.10
2018-07-03T22:05:43.220Z,2.37
2018-07-03T22:08:11.530Z,1.60
2018-07-03T22:10:39.864Z,1.57
2018-07-03T22:13:08.193Z,1.50
2018-07-03T22:15:36.540Z,1.50
2018-07-03T22:18:05.089Z,1.53
2018-07-03T22:20:33.404Z,2.70
2018-07-03T22:23:01.830Z,2.90
2018-07-03T22:25:30.214Z,3.10
2018-07-03T22:27:58.534Z,2.97
2018-07-03T22:30:26.975Z,3.20
2018-07-03T22:32:55.409Z,2.83
2018-07-03T22:35:23.768Z,2.93
2018-07-03T22:37:52.095Z,2.57
2018-07-03T22:40:20.465Z,2.10
2018-07-03T22:42:48.795Z,2.17
2018-07-03T22:45:17.133Z,1.93
2018-07-03T22:47:45.468Z,1.50
2018-07-03T22:50:13.779Z,1.30
2018-07-03T22:52:42.281Z,1.43
2018-07-03T22:55:10.776Z,1.47
2018-07-03T22:57:39.080Z,1.70
2018-07-03T23:00:07.461Z,1.30
2018-07-03T23:02:35.796Z,1.30
2018-07-03T23:05:04.977Z,1.30
2018-07-03T23:07:33.289Z,1.50
2018-07-03T23:10:01.638Z,1.23
2018-07-03T23:12:29.956Z,1.50
2018-07-03T23:14:58.389Z,1.40
2018-07-03T23:17:26.676Z,1.30
2018-07-03T23:19:55.021Z,1.23
2018-07-03T23:22:23.345Z,1.60
2018-07-03T23:24:51.661Z,2.00
2018-07-03T23:27:19.962Z,2.23
2018-07-03T23:29:48.397Z,2.50
2018-07-03T23:32:16.695Z,2.10
2018-07-03T23:34:45.021Z,2.33
2018-07-03T23:37:13.309Z,2.17
2018-07-03T23:39:41.620Z,2.60
2018-07-03T23:42:09.940Z,3.40
2018-07-03T23:44:38.229Z,3.50
2018-07-03T23:47:17.897Z,3.13
2018-07-03T23:49:57.620Z,2.73
2018-07-03T23:52:37.478Z,3.70
2018-07-03T23:55:17.208Z,3.77
2018-07-03T23:57:57.017Z,3.67
